Impacts METAR Board
IDs:

KLGA - New York/La Guardia, NY, US

Updated at: 1000 UTC 22 Apr 2018
Potential Impact None Slight Moderate High
Time 21/22Z 21/23Z 22/00Z 22/01Z 22/02Z 22/03Z 22/04Z 22/05Z 22/06Z 22/07Z 22/08Z 22/09Z 22/10Z
Temp61 60 59 58 56 55 54 53 51 49 49 48 47
Dewpt22 21 20 20 23 23 21 21 19 22 22 23 28
Altim30.25 30.26 30.28 30.30 30.32 30.33 30.34 30.35 30.36 30.37 30.38 30.37 30.38
VIS10 10 10 10 10 10 10 10 10 10 10 10 10
CIG250 250 250 250 -- -- -- -- 250 250 -- -- --
CoverBKNBKNBKNBKNSCTSCTSCTSCTBKNBKNSCTSCTFEW
FltCatVFRVFRVFRVFRVFRVFRVFRVFRVFRVFRVFRVFRVFR
WX--------------------------
WDir340330340330320320340330340320320320320
WSpd11 11 13 12 13 8 11 11 9 5 7 7 3
WGst-- -- -- -- -- -- 18 -- -- -- -- -- --
Raw hourly METARs
KLGA 212151Z 34011KT 10SM BKN250 16/M06 A3025 RMK AO2 SLP243 T01611056
KLGA 212251Z 33011KT 10SM BKN250 16/M06 A3026 RMK AO2 SLP246 T01561061
KLGA 212351Z 34013KT 10SM BKN250 15/M07 A3028 RMK AO2 SLP255 T01501067 10167 20139 53010
KLGA 220051Z 33012KT 10SM BKN250 14/M07 A3030 RMK AO2 SLP260 T01441067
KLGA 220151Z 32013KT 10SM SCT250 13/M05 A3032 RMK AO2 SLP267 T01331050
KLGA 220251Z 32008KT 10SM SCT250 13/M05 A3033 RMK AO2 SLP271 T01281050 51017
KLGA 220351Z 34011G18KT 10SM SCT250 12/M06 A3034 RMK AO2 SLP274 T01221061
KLGA 220451Z 33011KT 10SM SCT250 12/M06 A3035 RMK AO2 SLP278 T01171061 401670050
KLGA 220551Z 34009KT 10SM BKN250 11/M07 A3036 RMK AO2 SLP280 T01061072 10150 20106 51009
KLGA 220651Z 32005KT 10SM BKN250 09/M06 A3037 RMK AO2 SLP283 T00941056
KLGA 220751Z 32007KT 10SM SCT250 09/M06 A3038 RMK AO2 SLP286 T00941056
KLGA 220851Z 32007KT 10SM SCT250 09/M05 A3037 RMK AO2 SLP285 T00891050 50004
KLGA 220951Z 32003KT 10SM FEW250 08/M02 A3038 RMK AO2 SLP287 T00831022



Page loaded:  10:53 UTC  |   03:53 AM Pacific  |   04:53 AM Mountain  |   05:53 AM Central  |   06:53 AM Eastern

 

ADVISORIES

FORECASTS

FORECASTS

OBSERVATIONS

USER TOOLS

ABOUT US